Time;durP1;ratioP1;P1;durP2;ratioP2;P2;SDS_P1;SDS_P2;PMS_P1;PMS_P2;Temp;Humidity;BMP_temperature;BMP_pressure;BME280_temperature;BME280_humidity;BME280_pressure;Samples;Min_cycle;Max_cycle;Signal;HPM_P1;HPM_P2
2022/08/24 05:00:33;;;;;;;4.87;4.47;;;19.10;97.20;;;;;;1729593;28;20307;-74
2022/08/24 05:01:26;;;;;;;4.85;4.45;;;19.10;97.20;;;;;;1727711;28;20200;-73
2022/08/24 05:02:19;;;;;;;5.45;4.95;;;19.10;97.20;;;;;;1727652;28;20196;-73
2022/08/24 05:03:10;;;;;;;5.35;4.85;;;19.00;97.20;;;;;;1727634;28;20579;-73
2022/08/24 05:04:03;;;;;;;4.93;4.55;;;19.10;97.20;;;;;;1727277;28;20233;-73
2022/08/24 05:04:55;;;;;;;5.30;4.90;;;19.00;97.20;;;;;;1727537;28;20212;-73
2022/08/24 05:05:51;;;;;;;7.20;4.35;;;19.00;97.20;;;;;;1727632;28;20203;-73
2022/08/24 05:06:42;;;;;;;5.97;4.70;;;19.10;97.20;;;;;;1727732;28;20208;-73
2022/08/24 05:07:33;;;;;;;5.07;4.60;;;19.00;97.20;;;;;;1727711;28;20284;-73
2022/08/24 05:08:24;;;;;;;5.50;5.00;;;19.00;97.20;;;;;;1728598;28;20223;-73
2022/08/24 05:09:16;;;;;;;4.80;4.40;;;19.00;97.20;;;;;;1727601;28;20303;-73
2022/08/24 05:10:09;;;;;;;5.65;4.60;;;19.00;97.20;;;;;;1727661;28;20703;-72
2022/08/24 05:11:05;;;;;;;5.00;4.60;;;19.00;97.20;;;;;;1727603;28;20246;-73
2022/08/24 05:11:56;;;;;;;7.93;4.65;;;19.00;97.20;;;;;;1727694;28;20254;-73
2022/08/24 05:12:48;;;;;;;5.07;4.70;;;19.00;97.20;;;;;;1727710;28;20267;-73
2022/08/24 05:13:39;;;;;;;4.57;4.25;;;19.00;97.20;;;;;;1727339;28;20208;-72
2022/08/24 05:14:31;;;;;;;5.25;4.80;;;19.10;97.20;;;;;;1727560;28;20262;-73
2022/08/24 05:15:22;;;;;;;4.57;4.15;;;19.10;97.20;;;;;;1727476;28;20224;-73
2022/08/24 05:16:16;;;;;;;4.93;4.53;;;19.10;97.20;;;;;;1727580;28;20196;-73
2022/08/24 05:17:07;;;;;;;5.20;4.75;;;19.10;97.20;;;;;;1727568;28;20224;-72
2022/08/24 05:17:59;;;;;;;5.13;4.73;;;19.10;97.20;;;;;;1727573;28;20276;-73
2022/08/24 05:18:50;;;;;;;4.95;4.55;;;19.20;97.20;;;;;;1731494;28;20582;-72
2022/08/24 05:19:42;;;;;;;4.80;4.40;;;19.20;97.20;;;;;;1731744;28;20658;-73
2022/08/24 05:20:34;;;;;;;5.20;4.70;;;19.20;97.20;;;;;;1729054;28;20208;-72
2022/08/24 05:21:27;;;;;;;5.35;4.90;;;19.20;97.20;;;;;;1727516;28;20193;-73
2022/08/24 05:22:18;;;;;;;5.20;4.80;;;19.20;97.20;;;;;;1727561;28;20219;-73
2022/08/24 05:23:10;;;;;;;5.90;5.33;;;19.20;97.20;;;;;;1727538;28;20275;-73
2022/08/24 05:24:01;;;;;;;5.65;5.15;;;19.20;97.20;;;;;;1727195;28;20444;-72
2022/08/24 05:24:53;;;;;;;5.25;4.75;;;19.30;97.20;;;;;;1725892;28;20284;-73
2022/08/24 05:25:43;;;;;;;4.88;4.47;;;19.30;97.20;;;;;;1730630;28;20231;-72
2022/08/24 05:26:36;;;;;;;5.10;4.70;;;19.30;97.20;;;;;;1734016;28;20282;-73
2022/08/24 05:27:27;;;;;;;6.25;5.30;;;19.30;97.20;;;;;;1734032;28;20571;-73
2022/08/24 05:28:19;;;;;;;5.80;5.20;;;19.40;97.20;;;;;;1733877;28;20265;-73
2022/08/24 05:29:10;;;;;;;5.45;4.72;;;19.40;97.20;;;;;;1727484;28;20201;-73
2022/08/24 05:30:03;;;;;;;5.70;5.20;;;19.40;97.20;;;;;;1733511;28;20199;-73
2022/08/24 05:30:54;;;;;;;5.35;4.85;;;19.40;97.20;;;;;;1734188;28;20729;-72
2022/08/24 05:31:47;;;;;;;5.30;4.80;;;19.40;97.20;;;;;;1733899;28;20668;-72
2022/08/24 05:32:38;;;;;;;5.30;4.78;;;19.40;97.20;;;;;;1734126;28;20200;-72
2022/08/24 05:33:31;;;;;;;5.82;4.22;;;19.50;97.20;;;;;;1733655;28;20207;-73
2022/08/24 05:34:23;;;;;;;5.10;4.60;;;19.50;97.20;;;;;;1734267;28;20607;-73
2022/08/24 05:35:15;;;;;;;5.32;4.82;;;19.50;97.20;;;;;;1733431;28;20196;-73
2022/08/24 05:36:14;;;;;;;5.22;4.72;;;19.50;97.20;;;;;;1734165;28;20196;-72
2022/08/24 05:37:07;;;;;;;5.03;4.63;;;19.60;97.20;;;;;;1733370;28;20234;-73
2022/08/24 05:37:58;;;;;;;4.88;4.50;;;19.60;97.20;;;;;;1727312;28;20197;-72
2022/08/24 05:38:51;;;;;;;4.60;4.30;;;19.60;97.20;;;;;;1727329;28;20254;-73
2022/08/24 05:39:42;;;;;;;4.65;4.30;;;19.60;97.20;;;;;;1727186;28;20267;-72
2022/08/24 05:40:35;;;;;;;5.37;4.87;;;19.60;97.20;;;;;;1727307;28;20255;-72
2022/08/24 05:41:27;;;;;;;4.95;4.60;;;19.70;97.20;;;;;;1727338;28;20205;-72
2022/08/24 05:42:18;;;;;;;5.55;5.15;;;19.70;97.20;;;;;;1727512;28;20196;-73
2022/08/24 05:43:10;;;;;;;5.05;4.65;;;19.70;97.20;;;;;;1727297;28;20196;-72
2022/08/24 05:44:02;;;;;;;5.22;4.82;;;19.80;97.20;;;;;;1726741;28;20219;-72
2022/08/24 05:44:53;;;;;;;4.70;4.35;;;19.80;97.20;;;;;;1727205;28;20196;-72
2022/08/24 05:45:44;;;;;;;4.90;4.45;;;19.80;97.20;;;;;;1731779;28;20216;-72
2022/08/24 05:46:36;;;;;;;5.10;4.70;;;19.80;97.20;;;;;;1733968;28;20735;-72
2022/08/24 05:47:29;;;;;;;5.38;4.30;;;19.90;97.20;;;;;;1733875;28;20207;-72
2022/08/24 05:48:20;;;;;;;5.43;5.03;;;19.90;97.20;;;;;;1734124;28;20204;-72
2022/08/24 05:49:11;;;;;;;5.10;4.70;;;19.90;97.20;;;;;;1734059;28;20195;-72
2022/08/24 05:50:03;;;;;;;5.57;5.03;;;19.90;97.20;;;;;;1733863;28;20279;-72
2022/08/24 05:50:56;;;;;;;5.20;4.85;;;19.90;97.20;;;;;;1728240;28;20542;-72
2022/08/24 05:51:47;;;;;;;5.82;4.78;;;20.00;97.20;;;;;;1727338;28;20577;-72
2022/08/24 05:52:39;;;;;;;5.10;4.70;;;20.00;97.20;;;;;;1731974;28;20661;-72
2022/08/24 05:53:30;;;;;;;5.15;4.65;;;20.00;97.20;;;;;;1733494;28;20211;-73
2022/08/24 05:54:22;;;;;;;5.17;4.77;;;20.00;97.20;;;;;;1734125;28;20300;-72
2022/08/24 05:55:13;;;;;;;5.00;4.60;;;20.00;97.20;;;;;;1733711;28;20461;-72
2022/08/24 05:56:08;;;;;;;4.83;4.53;;;20.10;97.20;;;;;;1734049;28;20202;-72
2022/08/24 05:57:03;;;;;;;5.00;4.35;;;20.10;97.20;;;;;;1733787;28;20454;-72
2022/08/24 05:57:55;;;;;;;5.00;4.50;;;20.10;97.20;;;;;;1733980;28;20234;-73
2022/08/24 05:58:46;;;;;;;5.18;4.78;;;20.10;97.20;;;;;;1734096;28;20912;-73
2022/08/24 05:59:38;;;;;;;4.90;4.50;;;20.20;97.20;;;;;;1733997;28;20224;-72
2022/08/24 06:00:30;;;;;;;5.28;4.90;;;20.20;97.20;;;;;;1734031;28;20258;-73
2022/08/24 06:01:24;;;;;;;5.57;4.95;;;20.20;97.20;;;;;;1734101;28;20223;-73
2022/08/24 06:02:15;;;;;;;4.43;4.03;;;20.20;97.20;;;;;;1731979;28;20200;-73
2022/08/24 06:03:08;;;;;;;7.53;5.37;;;20.20;97.20;;;;;;1727238;28;20192;-73
2022/08/24 06:04:00;;;;;;;5.03;4.63;;;20.30;97.20;;;;;;1726646;28;20452;-73
2022/08/24 06:04:51;;;;;;;7.28;4.95;;;20.30;97.20;;;;;;1727084;28;20204;-73
2022/08/24 06:05:43;;;;;;;5.00;4.60;;;20.30;97.20;;;;;;1727231;28;20228;-73
2022/08/24 06:06:35;;;;;;;4.80;4.40;;;20.30;97.20;;;;;;1727218;28;20603;-73
2022/08/24 06:07:26;;;;;;;5.25;4.75;;;20.40;97.20;;;;;;1727125;28;20204;-73
2022/08/24 06:08:18;;;;;;;5.13;4.30;;;20.40;97.20;;;;;;1727195;28;20280;-73
2022/08/24 06:09:10;;;;;;;5.40;4.85;;;20.40;97.20;;;;;;1727152;28;20204;-72
2022/08/24 06:10:02;;;;;;;6.53;4.88;;;20.40;97.20;;;;;;1727172;28;20196;-72
2022/08/24 06:10:53;;;;;;;5.50;5.00;;;20.50;97.20;;;;;;1727098;28;20200;-73
2022/08/24 06:11:46;;;;;;;5.33;4.80;;;20.50;97.20;;;;;;1727296;28;20288;-72
2022/08/24 06:12:37;;;;;;;5.35;4.80;;;20.50;97.20;;;;;;1728097;28;20558;-72
2022/08/24 06:13:29;;;;;;;4.88;4.47;;;20.50;97.20;;;;;;1730909;28;20648;-73
2022/08/24 06:14:20;;;;;;;4.93;4.53;;;20.50;97.20;;;;;;1734005;28;20212;-72
2022/08/24 06:15:12;;;;;;;5.27;4.87;;;20.60;97.20;;;;;;1733789;28;20207;-72
2022/08/24 06:16:06;;;;;;;5.00;4.60;;;20.60;97.20;;;;;;1733902;28;20195;-73
2022/08/24 06:16:57;;;;;;;5.35;4.95;;;20.60;97.20;;;;;;1733804;28;20247;-72
2022/08/24 06:17:49;;;;;;;4.95;4.55;;;20.60;97.20;;;;;;1733903;28;20204;-72
2022/08/24 06:18:42;;;;;;;4.95;4.35;;;20.60;97.20;;;;;;1733946;28;20342;-72
2022/08/24 06:19:33;;;;;;;5.78;5.05;;;20.60;97.20;;;;;;1733871;28;20203;-72
2022/08/24 06:20:25;;;;;;;5.28;4.78;;;20.70;97.20;;;;;;1734042;28;20605;-72
2022/08/24 06:21:20;;;;;;;5.05;4.55;;;20.70;97.20;;;;;;1733975;28;20203;-72
2022/08/24 06:22:12;;;;;;;5.40;4.90;;;20.70;97.20;;;;;;1734061;28;20207;-72
2022/08/24 06:23:03;;;;;;;4.90;4.50;;;20.80;97.20;;;;;;1728203;28;20199;-72
2022/08/24 06:23:56;;;;;;;5.65;5.15;;;20.80;97.20;;;;;;1726555;28;20223;-73
2022/08/24 06:27:22;;;;;;;5.65;5.25;;;20.90;97.20;;;;;;1699547;29;20287;-73
2022/08/24 06:28:14;;;;;;;5.88;4.97;;;20.90;97.20;;;;;;1699582;29;20211;-73
2022/08/24 06:29:06;;;;;;;11.18;5.63;;;20.90;97.20;;;;;;1699663;29;20211;-72
2022/08/24 06:30:01;;;;;;;5.93;5.43;;;20.90;97.20;;;;;;1699561;29;20203;-73
2022/08/24 06:31:01;;;;;;;5.88;4.63;;;20.90;97.20;;;;;;1698820;29;20199;-73
2022/08/24 06:31:53;;;;;;;5.53;5.13;;;20.90;97.20;;;;;;1709574;28;20207;-73
2022/08/24 06:32:44;;;;;;;4.80;4.50;;;21.00;97.20;;;;;;1731831;28;20204;-72
2022/08/24 06:33:36;;;;;;;5.30;4.80;;;21.00;97.20;;;;;;1733197;28;20200;-73
2022/08/24 06:34:29;;;;;;;4.97;4.60;;;21.00;97.20;;;;;;1733544;28;20204;-72
2022/08/24 06:35:21;;;;;;;4.97;4.55;;;21.00;97.20;;;;;;1733057;28;20598;-73
2022/08/24 06:36:13;;;;;;;6.10;4.97;;;21.00;97.20;;;;;;1733238;28;20196;-73
2022/08/24 06:37:05;;;;;;;5.20;4.80;;;21.10;97.20;;;;;;1733120;28;20208;-73
2022/08/24 06:37:56;;;;;;;5.28;4.78;;;21.10;97.20;;;;;;1733549;28;20204;-73
2022/08/24 06:38:48;;;;;;;5.03;4.63;;;21.10;97.20;;;;;;1733910;28;20291;-73
2022/08/24 06:39:39;;;;;;;6.13;5.70;;;21.10;97.20;;;;;;1733684;28;20295;-73
2022/08/24 06:40:31;;;;;;;5.10;4.70;;;21.20;97.20;;;;;;1733132;28;20200;-73
2022/08/24 06:41:22;;;;;;;7.95;5.00;;;21.20;97.20;;;;;;1733699;28;20214;-73
2022/08/24 06:42:14;;;;;;;5.30;4.80;;;21.20;97.20;;;;;;1731626;28;20878;-73
2022/08/24 06:43:05;;;;;;;8.00;4.70;;;21.20;97.20;;;;;;1729494;28;20196;-74
2022/08/24 06:43:57;;;;;;;5.27;4.77;;;21.30;97.20;;;;;;1726231;28;20201;-73
2022/08/24 06:44:48;;;;;;;5.28;4.78;;;21.30;97.20;;;;;;1733255;28;20295;-74
2022/08/24 06:45:40;;;;;;;11.37;4.90;;;21.30;97.20;;;;;;1733883;28;20227;-74
2022/08/24 06:46:32;;;;;;;5.35;4.63;;;21.30;97.20;;;;;;1734004;28;20208;-74
2022/08/24 06:47:23;;;;;;;5.38;4.85;;;21.40;97.20;;;;;;1733846;28;20231;-74
2022/08/24 06:48:14;;;;;;;4.65;4.25;;;21.40;97.20;;;;;;1733876;28;20200;-74
2022/08/24 06:49:06;;;;;;;6.77;4.80;;;21.40;97.20;;;;;;1733920;28;20674;-74
2022/08/24 06:49:59;;;;;;;4.55;4.15;;;21.50;97.20;;;;;;1736045;28;20211;-74
2022/08/24 06:50:51;;;;;;;5.88;5.28;;;21.50;97.20;;;;;;1727558;28;20204;-74
2022/08/24 06:51:42;;;;;;;4.85;4.45;;;21.50;97.20;;;;;;1730861;28;20207;-74
2022/08/24 06:52:34;;;;;;;6.50;4.47;;;21.50;97.20;;;;;;1727218;28;20299;-74
2022/08/24 06:53:26;;;;;;;4.70;4.25;;;21.60;97.20;;;;;;1726608;28;20207;-73
2022/08/24 06:54:19;;;;;;;4.97;4.45;;;21.60;97.20;;;;;;1727006;28;20200;-74
2022/08/24 06:55:10;;;;;;;5.05;4.55;;;21.60;97.20;;;;;;1724819;28;20804;-73
2022/08/24 06:56:03;;;;;;;5.45;4.70;;;21.70;97.20;;;;;;1727079;28;20573;-74
2022/08/24 06:56:55;;;;;;;5.20;4.70;;;21.70;97.20;;;;;;1726777;28;20268;-74
2022/08/24 06:57:47;;;;;;;4.80;4.43;;;21.80;97.20;;;;;;1726736;28;20267;-74
2022/08/24 06:58:38;;;;;;;4.32;4.03;;;21.80;97.20;;;;;;1727139;28;20585;-74
2022/08/24 06:59:32;;;;;;;4.50;4.10;;;21.90;97.20;;;;;;1727842;28;20250;-74
2022/08/24 07:00:23;;;;;;;6.18;4.90;;;21.90;97.20;;;;;;1730381;28;20592;-74
2022/08/24 07:01:18;;;;;;;5.68;4.85;;;22.00;97.20;;;;;;1735058;28;20227;-73
2022/08/24 07:02:09;;;;;;;7.05;5.10;;;22.00;97.20;;;;;;1728047;28;20688;-73
2022/08/24 07:03:01;;;;;;;6.22;4.72;;;22.00;97.20;;;;;;1729843;28;20586;-73
2022/08/24 07:03:52;;;;;;;5.10;4.70;;;22.10;97.20;;;;;;1729685;28;20557;-73
2022/08/24 07:04:44;;;;;;;4.60;4.20;;;22.10;97.20;;;;;;1731914;28;20738;-73
2022/08/24 07:05:36;;;;;;;4.72;4.32;;;22.10;97.20;;;;;;1734922;28;20461;-73
2022/08/24 07:06:28;;;;;;;6.97;4.85;;;22.10;97.20;;;;;;1733128;28;20207;-73
2022/08/24 07:07:19;;;;;;;5.40;4.90;;;22.20;97.20;;;;;;1728002;28;20211;-73
2022/08/24 07:08:10;;;;;;;4.80;4.40;;;22.20;97.20;;;;;;1728329;28;20203;-74
2022/08/24 07:09:02;;;;;;;5.80;5.27;;;22.20;97.20;;;;;;1728248;28;20737;-73
2022/08/24 07:09:53;;;;;;;4.80;4.40;;;22.30;97.20;;;;;;1727839;28;20207;-73
2022/08/24 07:10:44;;;;;;;4.97;4.57;;;22.30;97.20;;;;;;1732509;28;20192;-73
2022/08/24 07:11:36;;;;;;;4.95;4.55;;;22.30;97.20;;;;;;1734032;28;20299;-73
2022/08/24 07:12:28;;;;;;;4.47;4.18;;;22.40;97.20;;;;;;1734475;28;20916;-73
2022/08/24 07:13:19;;;;;;;4.80;4.50;;;22.40;97.20;;;;;;1734874;28;20215;-74
2022/08/24 07:14:11;;;;;;;5.10;4.50;;;22.40;97.20;;;;;;1734364;28;20199;-73
2022/08/24 07:15:03;;;;;;;4.72;4.18;;;22.50;97.20;;;;;;1734616;28;20234;-73
2022/08/24 07:15:55;;;;;;;4.50;4.10;;;22.50;97.20;;;;;;1734784;28;20196;-73
2022/08/24 07:16:45;;;;;;;4.50;4.10;;;22.50;97.20;;;;;;1734613;28;20211;-72
2022/08/24 07:17:37;;;;;;;4.07;3.77;;;22.50;97.20;;;;;;1734958;28;20285;-73
2022/08/24 07:18:28;;;;;;;8.20;4.00;;;22.60;97.20;;;;;;1734836;28;20207;-73
2022/08/24 07:19:20;;;;;;;4.23;3.83;;;22.60;97.20;;;;;;1734876;28;20204;-73
2022/08/24 07:20:11;;;;;;;4.35;3.95;;;22.60;97.20;;;;;;1734078;28;20227;-73
2022/08/24 07:21:05;;;;;;;5.53;3.75;;;22.70;97.20;;;;;;1728062;28;20284;-72
2022/08/24 07:21:56;;;;;;;4.18;3.88;;;22.70;97.20;;;;;;1728002;28;20211;-73
2022/08/24 07:22:48;;;;;;;3.92;3.53;;;22.70;97.20;;;;;;1727685;28;20206;-72
2022/08/24 07:23:39;;;;;;;4.00;3.70;;;22.80;97.20;;;;;;1727540;28;20207;-73
2022/08/24 07:24:30;;;;;;;4.43;3.60;;;22.80;97.20;;;;;;1727996;28;20235;-73
2022/08/24 07:25:21;;;;;;;7.87;3.40;;;22.80;97.20;;;;;;1727831;28;20220;-74
2022/08/24 07:26:15;;;;;;;4.97;3.90;;;22.80;97.20;;;;;;1728253;28;20215;-74
2022/08/24 07:27:07;;;;;;;5.72;3.90;;;22.90;97.20;;;;;;1728067;28;20207;-73
2022/08/24 07:27:59;;;;;;;4.05;3.72;;;22.90;97.20;;;;;;1728126;28;20614;-74
2022/08/24 07:28:51;;;;;;;4.78;4.20;;;22.90;97.20;;;;;;1728162;28;20239;-74
2022/08/24 07:29:42;;;;;;;5.03;4.22;;;22.90;97.20;;;;;;1728088;28;20239;-73
2022/08/24 07:30:34;;;;;;;7.23;3.80;;;23.00;97.20;;;;;;1729233;28;20207;-74
2022/08/24 07:31:25;;;;;;;4.80;4.10;;;23.00;97.20;;;;;;1733191;28;20196;-73
2022/08/24 07:32:17;;;;;;;4.68;4.28;;;23.00;97.20;;;;;;1734666;28;20280;-73
2022/08/24 07:33:08;;;;;;;5.85;4.03;;;23.00;97.20;;;;;;1734979;28;20200;-74
2022/08/24 07:34:03;;;;;;;6.25;4.05;;;23.00;97.20;;;;;;1734260;28;20603;-73
2022/08/24 07:34:54;;;;;;;4.05;3.65;;;23.00;97.20;;;;;;1734808;28;20659;-73
2022/08/24 07:35:46;;;;;;;6.87;4.40;;;23.10;97.20;;;;;;1724849;28;20675;-74
2022/08/24 07:36:39;;;;;;;5.07;3.85;;;23.10;97.20;;;;;;1733106;28;20199;-73
2022/08/24 07:37:31;;;;;;;4.90;4.32;;;23.20;97.20;;;;;;1732814;28;20212;-74
2022/08/24 07:38:22;;;;;;;5.50;3.78;;;23.20;97.20;;;;;;1733901;28;20211;-74
2022/08/24 07:39:14;;;;;;;5.03;4.50;;;23.20;97.20;;;;;;1728036;28;20711;-74
2022/08/24 07:40:06;;;;;;;6.30;4.45;;;23.30;97.20;;;;;;1734759;28;20588;-74
2022/08/24 07:40:59;;;;;;;8.77;4.40;;;23.30;97.20;;;;;;1734411;28;20663;-74
2022/08/24 07:41:50;;;;;;;4.93;4.00;;;23.40;97.20;;;;;;1734841;28;20203;-74
2022/08/24 07:42:43;;;;;;;7.63;3.50;;;23.40;97.20;;;;;;1734565;28;20235;-74
2022/08/24 07:43:34;;;;;;;5.32;3.80;;;23.50;97.20;;;;;;1734288;28;20498;-73
2022/08/24 07:44:25;;;;;;;5.40;4.27;;;23.50;97.20;;;;;;1734801;28;20200;-74
2022/08/24 07:45:17;;;;;;;5.22;3.63;;;23.60;97.20;;;;;;1734740;28;20223;-74
2022/08/24 07:46:09;;;;;;;5.03;3.65;;;23.60;97.20;;;;;;1734885;28;20196;-74
2022/08/24 07:47:00;;;;;;;5.47;3.90;;;23.70;97.20;;;;;;1734727;28;20200;-73
2022/08/24 07:47:52;;;;;;;4.70;4.20;;;23.70;97.20;;;;;;1734774;28;20200;-74
2022/08/24 07:48:44;;;;;;;5.47;3.75;;;23.70;97.20;;;;;;1732937;28;20207;-74
2022/08/24 07:49:35;;;;;;;4.30;3.90;;;23.70;97.20;;;;;;1731980;28;20199;-74
2022/08/24 07:50:26;;;;;;;6.13;4.10;;;23.70;97.20;;;;;;1733061;28;20204;-74
2022/08/24 07:51:19;;;;;;;5.43;4.00;;;23.80;97.20;;;;;;1734869;28;20223;-74
2022/08/24 07:52:12;;;;;;;6.28;4.18;;;23.80;97.20;;;;;;1734533;28;20741;-73
2022/08/24 07:53:04;;;;;;;9.82;4.22;;;23.80;97.20;;;;;;1734862;28;20659;-73
2022/08/24 07:53:55;;;;;;;4.53;4.07;;;23.90;97.20;;;;;;1734208;28;20253;-74
2022/08/24 07:54:46;;;;;;;8.10;3.90;;;23.90;97.20;;;;;;1734502;28;20234;-74
2022/08/24 07:55:38;;;;;;;6.60;3.80;;;23.90;97.20;;;;;;1734629;28;20985;-74
2022/08/24 07:56:30;;;;;;;7.85;4.85;;;23.90;97.20;;;;;;1734747;28;20195;-73
2022/08/24 07:57:21;;;;;;;8.73;4.78;;;24.00;97.20;;;;;;1734663;28;20282;-74
2022/08/24 07:58:13;;;;;;;8.90;4.87;;;24.00;97.20;;;;;;1734764;28;20210;-74
2022/08/24 07:59:03;;;;;;;5.45;4.20;;;24.10;97.20;;;;;;1730384;28;20676;-74
2022/08/24 07:59:55;;;;;;;9.73;4.47;;;24.10;97.20;;;;;;1727984;28;20619;-74
2022/08/24 08:00:46;;;;;;;12.63;5.45;;;24.20;97.20;;;;;;1727856;28;20231;-74
2022/08/24 08:01:38;;;;;;;10.57;4.97;;;24.20;97.20;;;;;;1727784;28;20196;-74
2022/08/24 08:02:30;;;;;;;8.57;4.25;;;24.30;97.20;;;;;;1727621;28;20579;-74
2022/08/24 08:03:24;;;;;;;6.43;4.38;;;24.30;97.20;;;;;;1727608;28;20200;-74
2022/08/24 08:04:15;;;;;;;6.47;4.40;;;24.40;97.20;;;;;;1727841;28;20201;-74
2022/08/24 08:05:07;;;;;;;8.88;4.85;;;24.40;97.20;;;;;;1727731;28;20549;-74
2022/08/24 08:06:01;;;;;;;13.70;5.20;;;24.50;97.20;;;;;;1728061;28;20208;-74
2022/08/24 08:06:53;;;;;;;11.73;4.97;;;24.50;97.20;;;;;;1727724;28;20866;-74
2022/08/24 08:07:45;;;;;;;10.73;4.72;;;24.60;97.20;;;;;;1727979;28;20209;-74
2022/08/24 08:08:39;;;;;;;10.10;5.38;;;24.60;97.20;;;;;;1727925;28;20215;-74
2022/08/24 08:09:30;;;;;;;8.15;4.15;;;24.70;97.20;;;;;;1732000;28;20211;-74
2022/08/24 08:10:23;;;;;;;8.27;5.50;;;24.70;97.20;;;;;;1727773;28;20291;-74
2022/08/24 08:11:13;;;;;;;12.23;5.30;;;24.70;97.20;;;;;;1732888;28;20903;-74
2022/08/24 08:12:06;;;;;;;6.53;5.00;;;24.80;97.20;;;;;;1734565;28;20602;-74
2022/08/24 08:12:57;;;;;;;12.05;4.57;;;24.80;97.20;;;;;;1734705;28;20615;-74
2022/08/24 08:13:49;;;;;;;9.97;4.87;;;24.90;97.20;;;;;;1734247;28;20262;-74
2022/08/24 08:14:39;;;;;;;12.18;4.55;;;24.90;97.20;;;;;;1734638;28;20204;-74
2022/08/24 08:15:32;;;;;;;9.90;4.30;;;25.00;97.20;;;;;;1734653;28;20303;-74
2022/08/24 08:16:23;;;;;;;8.77;3.13;;;25.00;97.20;;;;;;1734770;28;20207;-74
2022/08/24 08:17:15;;;;;;;11.47;3.90;;;25.00;97.20;;;;;;1734473;28;20290;-74
2022/08/24 08:18:06;;;;;;;7.85;4.07;;;25.00;97.20;;;;;;1734741;28;20725;-74
2022/08/24 08:18:58;;;;;;;6.77;4.00;;;25.10;97.20;;;;;;1731659;28;20620;-74
2022/08/24 08:19:49;;;;;;;8.02;3.97;;;25.10;97.20;;;;;;1727835;28;20448;-74
2022/08/24 08:20:42;;;;;;;10.77;4.45;;;25.10;97.20;;;;;;1727767;28;20570;-74
2022/08/24 08:25:09;;;;;;;7.40;4.13;;;25.20;97.20;;;;;;1707300;28;20250;-74
2022/08/24 08:26:00;;;;;;;7.70;4.15;;;25.20;97.20;;;;;;1727849;28;20787;-74
2022/08/24 08:26:53;;;;;;;10.82;3.80;;;25.30;97.20;;;;;;1727605;28;20196;-75
2022/08/24 08:27:44;;;;;;;11.30;4.28;;;25.30;97.20;;;;;;1727867;28;20212;-74
2022/08/24 08:28:35;;;;;;;10.98;3.80;;;25.30;97.20;;;;;;1727750;28;20201;-74
2022/08/24 08:29:27;;;;;;;6.65;3.30;;;25.30;97.20;;;;;;1732610;28;20659;-74
2022/08/24 08:30:19;;;;;;;5.97;3.72;;;25.30;97.20;;;;;;1727848;28;20192;-74
2022/08/24 08:31:09;;;;;;;6.40;3.80;;;25.30;97.20;;;;;;1727746;28;20212;-74
2022/08/24 08:32:01;;;;;;;6.43;3.50;;;25.40;97.20;;;;;;1727835;28;20356;-75
2022/08/24 08:32:52;;;;;;;5.13;3.30;;;25.40;97.20;;;;;;1727537;28;20574;-74
2022/08/24 08:33:44;;;;;;;6.77;3.77;;;25.40;97.20;;;;;;1727265;28;20855;-74
2022/08/24 08:34:35;;;;;;;9.68;3.80;;;25.40;97.20;;;;;;1727484;28;20209;-74
2022/08/24 08:35:27;;;;;;;6.00;3.80;;;25.40;97.20;;;;;;1727693;28;20308;-74
2022/08/24 08:36:20;;;;;;;5.00;3.10;;;25.50;97.20;;;;;;1727844;28;20215;-74
2022/08/24 08:37:12;;;;;;;7.85;3.45;;;25.50;97.20;;;;;;1727540;28;20501;-74
2022/08/24 08:38:05;;;;;;;7.47;3.40;;;25.50;97.20;;;;;;1727770;28;20243;-74
2022/08/24 08:38:57;;;;;;;5.43;3.80;;;25.50;97.20;;;;;;1728622;28;20475;-74
2022/08/24 08:39:48;;;;;;;8.18;3.88;;;25.60;97.20;;;;;;1727735;28;20463;-74
2022/08/24 08:40:54;;;;;;;4.77;3.47;;;25.60;97.20;;;;;;1734447;28;20219;-74
2022/08/24 08:42:27;;;;;;;6.18;3.45;;;25.70;97.20;;;;;;1734632;28;20457;-74
2022/08/24 08:43:36;;;;;;;7.03;3.05;;;25.70;97.20;;;;;;1719246;28;20206;-74
2022/08/24 08:44:44;;;;;;;6.53;3.87;;;25.80;97.20;;;;;;1734476;28;20199;-74
2022/08/24 08:45:59;;;;;;;5.33;3.77;;;25.80;97.20;;;;;;1734441;28;20495;-74
2022/08/24 08:47:02;;;;;;;4.15;3.05;;;25.90;97.20;;;;;;1734277;28;20442;-74
2022/08/24 08:48:16;;;;;;;5.53;3.23;;;25.90;97.20;;;;;;1734513;28;20250;-75
2022/08/24 08:49:23;;;;;;;5.53;2.93;;;26.00;97.20;;;;;;1732759;28;20451;-74
2022/08/24 08:50:20;;;;;;;5.70;3.10;;;26.00;97.20;;;;;;1727720;28;20424;-74
2022/08/24 08:51:33;;;;;;;4.40;3.15;;;26.00;97.20;;;;;;1730313;28;20275;-75
2022/08/24 08:52:52;;;;;;;4.28;2.90;;;26.10;97.20;;;;;;1734265;28;20258;-74
2022/08/24 08:54:16;;;;;;;4.65;2.97;;;26.10;97.20;;;;;;1734089;28;20286;-74
2022/08/24 08:55:26;;;;;;;6.00;2.90;;;26.20;97.20;;;;;;1734165;28;20200;-74
2022/08/24 08:56:24;;;;;;;3.20;2.53;;;26.20;97.20;;;;;;1734501;28;20438;-74
2022/08/24 08:57:31;;;;;;;4.93;2.40;;;26.20;97.20;;;;;;1734353;28;20439;-74
2022/08/24 08:58:42;;;;;;;4.90;3.10;;;26.30;97.20;;;;;;1732770;28;20541;-75
2022/08/24 08:59:44;;;;;;;4.90;3.20;;;26.30;97.20;;;;;;1734393;28;20451;-74
2022/08/24 09:00:51;;;;;;;6.43;2.73;;;26.30;97.20;;;;;;1734338;28;20469;-74
2022/08/24 09:01:50;;;;;;;5.00;2.90;;;26.30;97.20;;;;;;1734391;28;20460;-74
2022/08/24 09:03:01;;;;;;;6.43;3.00;;;26.40;97.20;;;;;;1734176;28;20667;-74
2022/08/24 09:04:11;;;;;;;5.38;3.20;;;26.40;97.20;;;;;;1733801;28;20443;-74
2022/08/24 09:05:27;;;;;;;4.33;2.63;;;26.40;97.20;;;;;;1734174;28;20259;-74
2022/08/24 09:06:40;;;;;;;3.85;2.90;;;26.40;97.20;;;;;;1734435;28;20529;-74
2022/08/24 09:07:43;;;;;;;6.20;3.10;;;26.50;97.20;;;;;;1721290;28;20299;-74
2022/08/24 09:09:05;;;;;;;4.50;2.40;;;26.50;97.20;;;;;;1732596;28;20254;-74
2022/08/24 09:10:22;;;;;;;5.27;2.47;;;26.50;97.20;;;;;;1733420;28;20200;-74
2022/08/24 09:11:23;;;;;;;2.47;2.27;;;26.50;97.20;;;;;;1734282;28;20815;-74
2022/08/24 09:12:20;;;;;;;3.40;2.40;;;26.60;97.20;;;;;;1733813;28;20431;-74
2022/08/24 09:13:27;;;;;;;3.20;2.50;;;26.60;97.20;;;;;;1734384;28;20427;-74
2022/08/24 09:14:48;;;;;;;4.07;2.70;;;26.60;97.20;;;;;;1734450;28;20434;-74
2022/08/24 09:16:11;;;;;;;3.15;2.85;;;26.70;97.20;;;;;;1734138;28;20478;-74
2022/08/24 09:17:15;;;;;;;2.80;2.60;;;26.70;97.20;;;;;;1712902;28;20206;-74
2022/08/24 09:18:23;;;;;;;2.77;2.57;;;26.80;97.20;;;;;;1713201;28;20473;-74
2022/08/24 09:19:27;;;;;;;3.40;2.57;;;26.80;97.20;;;;;;1727464;28;20486;-74
2022/08/24 09:20:31;;;;;;;3.97;2.50;;;26.90;97.20;;;;;;1727483;28;20471;-74
2022/08/24 09:21:41;;;;;;;3.85;2.20;;;26.90;97.20;;;;;;1727543;28;20221;-74
2022/08/24 09:22:38;;;;;;;2.53;2.10;;;26.90;97.20;;;;;;1726908;28;20220;-75
2022/08/24 09:23:35;;;;;;;3.70;2.50;;;27.00;97.20;;;;;;1726900;28;20444;-74
2022/08/24 09:25:05;;;;;;;2.77;2.57;;;27.00;97.20;;;;;;1727512;28;20855;-75
2022/08/24 09:26:04;;;;;;;2.90;2.70;;;27.00;97.20;;;;;;1727228;28;20443;-75
2022/08/24 09:27:08;;;;;;;3.13;2.43;;;27.10;97.20;;;;;;1727214;28;20368;-74
2022/08/24 09:28:12;;;;;;;4.47;2.27;;;27.10;97.20;;;;;;1727426;28;20486;-74
2022/08/24 09:29:11;;;;;;;2.60;2.00;;;27.10;97.20;;;;;;1732770;28;20447;-74
2022/08/24 09:30:09;;;;;;;2.37;2.17;;;27.10;97.20;;;;;;1734324;28;20445;-74
2022/08/24 09:31:23;;;;;;;3.47;2.33;;;27.10;97.20;;;;;;1734183;28;20800;-75
2022/08/24 09:32:31;;;;;;;2.30;2.10;;;27.10;97.20;;;;;;1734201;28;20812;-75
2022/08/24 09:33:30;;;;;;;2.00;1.80;;;27.20;97.20;;;;;;1733725;28;20446;-74
2022/08/24 09:34:39;;;;;;;2.10;1.97;;;27.20;97.20;;;;;;1734250;28;20450;-74
2022/08/24 09:35:57;;;;;;;2.13;1.93;;;27.10;97.20;;;;;;1734051;28;20466;-75
2022/08/24 09:37:03;;;;;;;2.87;2.23;;;27.10;97.20;;;;;;1728507;28;20447;-74
2022/08/24 09:37:59;;;;;;;5.03;2.53;;;27.10;97.20;;;;;;1734108;28;20446;-75
2022/08/24 09:39:00;;;;;;;2.40;2.20;;;27.10;97.20;;;;;;1728564;28;20835;-74
2022/08/24 09:40:00;;;;;;;2.87;2.20;;;27.10;97.20;;;;;;1727402;28;20432;-74
2022/08/24 09:41:17;;;;;;;3.08;2.17;;;27.20;97.20;;;;;;1727291;28;20455;-74
2022/08/24 09:42:47;;;;;;;3.38;2.30;;;27.20;97.20;;;;;;1724844;28;20231;-74
2022/08/24 09:44:12;;;;;;;2.30;2.10;;;27.20;97.20;;;;;;1726782;28;20212;-74
2022/08/24 09:45:19;;;;;;;3.60;2.10;;;27.20;97.20;;;;;;1712028;28;20241;-74
2022/08/24 09:46:31;;;;;;;3.47;2.50;;;27.20;97.20;;;;;;1727300;28;20439;-74
2022/08/24 09:47:46;;;;;;;2.50;1.93;;;27.20;97.20;;;;;;1727263;28;20211;-74
2022/08/24 09:49:11;;;;;;;3.50;2.40;;;27.20;97.20;;;;;;1729972;28;20461;-74
2022/08/24 09:50:31;;;;;;;2.60;2.40;;;27.10;97.20;;;;;;1734256;28;20338;-74
2022/08/24 09:51:55;;;;;;;4.80;2.80;;;27.10;97.20;;;;;;1734210;28;20521;-74
2022/08/24 09:53:16;;;;;;;2.42;2.17;;;27.10;97.20;;;;;;1734135;28;20435;-74
2022/08/24 09:54:50;;;;;;;3.42;2.47;;;27.10;97.20;;;;;;1731461;28;20571;-74
2022/08/24 09:56:13;;;;;;;3.13;2.30;;;27.10;97.20;;;;;;1733907;28;20246;-74